Change the Weather History Date:

Monday, January 20, 2014

  Actual Average (KHBI) Record (KHBI)
Temperature  
Mean Temperature 44 °F -  
Max Temperature 65 °F 47 °F 71 °F (1951)
Min Temperature 22 °F 28 °F 2 °F (1985)
Degree Days  
Heating Degree Days 22    
Moisture  
Dew Point 27 °F    
Average Humidity 66    
Maximum Humidity 98    
Minimum Humidity 20    
Precipitation  
Precipitation 0.00 in - - ()
Sea Level Pressure  
Sea Level Pressure 29.91 in    
Wind  
Wind Speed 3 mph (SW)    
Max Wind Speed 12 mph    
Max Gust Speed 17 mph    
Visibility 10 miles    
Events      
Averages and records for this station are not official NWS values.
T = Trace of Precipitation, MM = Missing Value Source: NWS Daily Summary

Daily Weather History Graph

Daily Weather History Graph

Search for Another Location

Airport or City:

Trip Planner

Search our weather history database for the weather conditions in past years. The results will help you decide how hot, cold, wet, or windy it might be!

Date:

Astronomy

Jan. 20, 2014 Rise Set
Actual Time 7:27 AM EST 5:36 PM EST
Civil Twilight 6:59 AM EST 6:03 PM EST
Nautical Twilight 6:28 AM EST 6:34 PM EST
Astronomical Twilight 5:58 AM EST 7:05 PM EST
Moon 9:58 PM EST (1/20) 9:36 AM EST (1/20)
Length of Visible Light 11h 03m
Length of Day
10h 08m
Waning Gibbous, 83% of the Moon is Illuminated
Jan 20
Waning Gibbous
Jan 24
Last Quarter
Jan 30
New
Feb 6
First Quarter
Feb 14
Full

Hourly Weather History & Observations

Time (EST) Temp. Windchill Dew Point Humidity Pressure Visibility Wind Dir Wind Speed Gust Speed Precip Events Conditions
12:15 AM 28.2 °F - 25.7 °F 90% 29.97 in 10.0 mi Calm Calm - N/A   Clear
12:35 AM 32.4 °F 29.1 °F 25.9 °F 77% 29.96 in 10.0 mi WSW 3.5 mph - N/A   Clear
12:55 AM 28.0 °F - 26.8 °F 95% 29.96 in 10.0 mi Calm Calm - N/A   Clear
1:15 AM 28.0 °F - 24.8 °F 88% 29.95 in 10.0 mi Calm Calm - N/A   Clear
1:35 AM 26.8 °F - 26.1 °F 97% 29.95 in 10.0 mi Calm Calm - N/A   Clear
1:55 AM 28.2 °F - 26.4 °F 93% 29.95 in 10.0 mi Calm Calm - N/A   Clear
2:15 AM 27.5 °F - 25.7 °F 93% 29.96 in 10.0 mi Calm Calm - N/A   Clear
2:35 AM 25.0 °F - 22.1 °F 89% 29.96 in 10.0 mi Calm Calm - N/A   Clear
2:55 AM 27.1 °F - 25.3 °F 93% 29.95 in 10.0 mi Calm Calm - N/A   Clear
3:15 AM 26.6 °F - 25.9 °F 97% 29.95 in 10.0 mi Calm Calm - N/A   Clear
3:35 AM 27.3 °F 20.9 °F 25.2 °F 92% 29.94 in 10.0 mi SW 5.8 mph - N/A   Clear
3:55 AM 30.6 °F 23.1 °F 26.6 °F 85% 29.94 in 10.0 mi SW 8.1 mph - N/A   Clear
4:15 AM 32.2 °F 26.7 °F 27.7 °F 83% 29.93 in 10.0 mi WSW 5.8 mph - N/A   Clear
4:35 AM 32.0 °F 28.7 °F 27.5 °F 83% 29.93 in 10.0 mi WSW 3.5 mph - N/A   Clear
4:55 AM 28.4 °F 23.3 °F 25.3 °F 88% 29.93 in 10.0 mi SSW 4.6 mph - N/A   Clear
5:15 AM 25.2 °F - 23.4 °F 93% 29.94 in 10.0 mi Calm Calm - N/A   Clear
5:35 AM 25.5 °F - 24.3 °F 95% 29.93 in 10.0 mi Calm Calm - N/A   Clear
5:55 AM 26.8 °F - 25.2 °F 94% 29.93 in 10.0 mi Calm Calm - N/A   Clear
6:15 AM 25.5 °F - 24.1 °F 94% 29.93 in 10.0 mi Calm Calm - N/A   Clear
6:35 AM 23.9 °F - 22.8 °F 96% 29.93 in 10.0 mi Calm Calm - N/A   Clear
6:55 AM 24.8 °F - 24.3 °F 98% 29.94 in 10.0 mi Calm Calm - N/A   Clear
7:15 AM 23.5 °F - 21.9 °F 94% 29.93 in 10.0 mi Calm Calm - N/A   Clear
7:35 AM 23.5 °F - 23.0 °F 98% 29.94 in 10.0 mi Calm Calm - N/A   Clear
7:55 AM 22.1 °F - 20.8 °F 95% 29.94 in 10.0 mi Calm Calm - N/A   Clear
8:15 AM 26.8 °F - 25.5 °F 95% 29.94 in 10.0 mi Calm Calm - N/A   Clear
8:35 AM 30.2 °F - 28.2 °F 92% 29.94 in 10.0 mi Calm Calm - N/A   Clear
8:55 AM 34.2 °F 29.0 °F 31.3 °F 89% 29.94 in 10.0 mi SSW 5.8 mph - N/A   Clear
9:15 AM 37.0 °F 31.6 °F 31.5 °F 80% 29.94 in 10.0 mi SSW 6.9 mph - N/A   Clear
9:35 AM 38.7 °F 33.6 °F 30.2 °F 72% 29.94 in 10.0 mi SW 6.9 mph - N/A   Clear
9:55 AM 40.5 °F 37.3 °F 30.4 °F 67% 29.95 in 10.0 mi SW 4.6 mph - N/A   Clear
10:15 AM 43.5 °F 40.9 °F 29.7 °F 58% 29.95 in 10.0 mi West 4.6 mph - N/A   Clear
10:35 AM 46.2 °F 42.7 °F 28.8 °F 51% 29.94 in 10.0 mi SW 6.9 mph - N/A   Clear
10:55 AM 49.1 °F - 29.3 °F 46% 29.94 in 10.0 mi SSW 9.2 mph - N/A   Clear
11:15 AM 51.3 °F - 26.8 °F 39% 29.94 in 10.0 mi WSW 6.9 mph - N/A   Clear
11:35 AM 52.7 °F - 26.6 °F 36% 29.92 in 10.0 mi SW 9.2 mph - N/A   Clear
11:55 AM 54.7 °F - 25.9 °F 33% 29.91 in 10.0 mi WSW 9.2 mph - N/A   Clear
12:15 PM 56.7 °F - 25.5 °F 30% 29.90 in 10.0 mi West 5.8 mph - N/A   Clear
12:35 PM 57.9 °F - 23.9 °F 27% 29.89 in 10.0 mi SW 8.1 mph - N/A   Clear
12:55 PM 58.6 °F - 23.2 °F 26% 29.88 in 10.0 mi SW 11.5 mph - N/A   Clear
1:15 PM 59.7 °F - 24.1 °F 26% 29.87 in 10.0 mi WSW 8.1 mph - N/A   Clear
1:35 PM 61.9 °F - 24.3 °F 24% 29.86 in 10.0 mi WSW 8.1 mph 17.3 mph N/A   Clear
1:55 PM 62.4 °F - 23.4 °F 22% 29.85 in 10.0 mi SW 6.9 mph - N/A   Clear
2:15 PM 63.3 °F - 23.0 °F 21% 29.84 in 10.0 mi SW 10.4 mph 16.1 mph N/A   Clear
2:35 PM 63.5 °F - 22.1 °F 21% 29.84 in 10.0 mi WSW 10.4 mph - N/A   Clear
2:55 PM 64.4 °F - 23.0 °F 21% 29.84 in 10.0 mi WSW 9.2 mph - N/A   Clear
3:15 PM 65.1 °F - 23.4 °F 20% 29.84 in 10.0 mi SW 9.2 mph - N/A   Clear
3:35 PM 64.6 °F - 23.0 °F 21% 29.84 in 10.0 mi WSW 10.4 mph - N/A   Clear
3:55 PM 64.6 °F - 24.3 °F 22% 29.85 in 10.0 mi WSW 5.8 mph - N/A   Clear
4:15 PM 63.5 °F - 24.4 °F 23% 29.85 in 10.0 mi SW 11.5 mph 16.1 mph N/A   Clear
4:35 PM 62.8 °F - 24.6 °F 23% 29.85 in 10.0 mi WSW 6.9 mph - N/A   Clear
4:55 PM 61.0 °F - 25.2 °F 25% 29.86 in 10.0 mi SW 8.1 mph - N/A   Clear
5:15 PM 59.4 °F - 25.5 °F 27% 29.86 in 10.0 mi SW 6.9 mph - N/A   Clear
5:35 PM 57.4 °F - 25.0 °F 29% 29.87 in 10.0 mi Calm Calm - N/A   Clear
5:55 PM 53.4 °F - 26.6 °F 36% 29.87 in 10.0 mi Calm Calm - N/A   Clear
6:15 PM 50.0 °F - 27.5 °F 42% 29.87 in 10.0 mi Calm Calm - N/A   Clear
6:35 PM 44.6 °F - 28.6 °F 53% 29.88 in 10.0 mi Calm Calm - N/A   Clear
6:55 PM 44.1 °F - 28.4 °F 54% 29.88 in 10.0 mi Calm Calm - N/A   Clear
7:15 PM 42.4 °F - 29.3 °F 60% 29.88 in 10.0 mi Calm Calm - N/A   Clear
7:35 PM 42.8 °F - 29.1 °F 58% 29.88 in 10.0 mi Calm Calm - N/A   Clear
7:55 PM 39.6 °F - 29.5 °F 67% 29.89 in 10.0 mi Calm Calm - N/A   Clear
8:15 PM 38.3 °F - 29.3 °F 70% 29.89 in 10.0 mi Calm Calm - N/A   Clear
8:35 PM 38.3 °F - 29.8 °F 72% 29.89 in 10.0 mi Calm Calm - N/A   Clear
8:55 PM 37.4 °F - 29.7 °F 74% 29.89 in 10.0 mi Calm Calm - N/A   Clear
9:15 PM 35.6 °F - 30.6 °F 82% 29.89 in 10.0 mi Calm Calm - N/A   Clear
9:35 PM 36.0 °F - 30.9 °F 82% 29.89 in 10.0 mi Calm Calm - N/A   Clear
9:55 PM 35.8 °F - 30.7 °F 82% 29.89 in 10.0 mi Calm Calm - N/A   Clear
10:15 PM 35.6 °F - 30.6 °F 82% 29.88 in 10.0 mi Calm Calm - N/A   Clear
10:35 PM 33.8 °F - 31.1 °F 90% 29.87 in 10.0 mi Calm Calm - N/A   Clear
10:55 PM 33.3 °F - 30.6 °F 90% 29.87 in 10.0 mi Calm Calm - N/A   Clear
11:15 PM 32.9 °F - 29.8 °F 88% 29.87 in 10.0 mi Calm Calm - N/A   Clear
11:35 PM 32.0 °F - 30.2 °F 93% 29.86 in 10.0 mi Calm Calm - N/A   Clear
11:55 PM 31.5 °F - 29.8 °F 94% 29.85 in 10.0 mi Calm Calm - N/A   Clear